Time;durP1;ratioP1;P1;durP2;ratioP2;P2;SDS_P1;SDS_P2;PMS_P1;PMS_P2;Temp;Humidity;BMP_temperature;BMP_pressure;BME280_temperature;BME280_humidity;BME280_pressure;Samples;Min_cycle;Max_cycle;Signal;HPM_P1;HPM_P2
2023/01/03 00:01:18;;;;;;;20.02;13.00;;;8.40;93.40;;;;;;5026325;28;20035;-65
2023/01/03 00:03:44;;;;;;;18.48;11.90;;;8.40;93.50;;;;;;5027275;28;20056;-65
2023/01/03 00:06:41;;;;;;;19.05;12.82;;;8.40;93.50;;;;;;5026060;28;20014;-65
2023/01/03 00:09:10;;;;;;;19.38;13.13;;;8.40;93.80;;;;;;5024203;28;20029;-66
2023/01/03 00:14:31;;;;;;;18.58;13.30;;;8.40;93.50;;;;;;5029546;28;20459;-65
2023/01/03 00:16:58;;;;;;;17.23;12.23;;;8.40;93.50;;;;;;5028784;28;20117;-65
2023/01/03 00:19:27;;;;;;;19.48;12.38;;;8.40;93.40;;;;;;5033079;28;20025;-66
2023/01/03 00:21:52;;;;;;;17.48;12.80;;;8.40;93.50;;;;;;5026939;28;20037;-66
2023/01/03 00:24:18;;;;;;;15.25;11.63;;;8.40;93.50;;;;;;5027347;28;20512;-66
2023/01/03 00:26:44;;;;;;;16.33;11.15;;;8.30;93.50;;;;;;5027736;28;20018;-66
2023/01/03 00:29:11;;;;;;;17.23;11.32;;;8.40;93.50;;;;;;5028145;28;21454;-65
2023/01/03 00:31:37;;;;;;;16.45;11.60;;;8.40;93.50;;;;;;5028353;28;20102;-66
2023/01/03 00:34:03;;;;;;;16.98;11.35;;;8.40;93.50;;;;;;5028353;28;20585;-66
2023/01/03 00:36:28;;;;;;;17.80;11.98;;;8.40;93.50;;;;;;5025403;28;20033;-65
2023/01/03 00:38:54;;;;;;;17.40;11.40;;;8.40;93.50;;;;;;5027032;28;20504;-65
2023/01/03 00:41:20;;;;;;;18.48;12.38;;;8.40;93.50;;;;;;5026074;28;20030;-65
2023/01/03 00:43:47;;;;;;;16.67;11.98;;;8.40;93.50;;;;;;5027891;28;20621;-65
2023/01/03 00:46:14;;;;;;;15.43;11.10;;;8.40;93.50;;;;;;5030046;28;20029;-66
2023/01/03 00:48:40;;;;;;;17.40;12.02;;;8.40;93.50;;;;;;5028588;28;20087;-65
2023/01/03 00:51:15;;;;;;;16.30;11.20;;;8.30;93.50;;;;;;5032021;28;20080;-66
2023/01/03 00:53:41;;;;;;;16.00;10.52;;;8.30;93.50;;;;;;5026216;28;20116;-65
2023/01/03 00:56:12;;;;;;;15.93;10.43;;;8.30;93.80;;;;;;5032098;28;20043;-65
2023/01/03 00:58:38;;;;;;;16.70;11.65;;;8.30;93.60;;;;;;5026557;28;20037;-65
2023/01/03 01:01:09;;;;;;;16.33;11.70;;;8.30;93.50;;;;;;5031541;28;20033;-65
2023/01/03 01:03:36;;;;;;;15.30;11.52;;;8.30;93.60;;;;;;5031337;28;20060;-65
2023/01/03 01:06:24;;;;;;;17.48;12.32;;;8.20;93.50;;;;;;5032130;28;20083;-65
2023/01/03 01:08:52;;;;;;;14.50;10.30;;;8.30;93.60;;;;;;5032155;28;20030;-65
2023/01/03 01:11:18;;;;;;;15.77;11.73;;;8.20;93.50;;;;;;5032113;28;20113;-65
2023/01/03 01:13:45;;;;;;;18.63;12.40;;;8.20;93.60;;;;;;5032251;28;20053;-65
2023/01/03 01:16:17;;;;;;;14.02;10.75;;;8.30;93.60;;;;;;5031645;28;20033;-66
2023/01/03 01:18:44;;;;;;;15.60;11.65;;;8.30;93.60;;;;;;5029594;28;20064;-65
2023/01/03 01:21:13;;;;;;;14.00;11.25;;;8.30;93.60;;;;;;5028631;28;20061;-65
2023/01/03 01:23:40;;;;;;;19.00;13.02;;;8.40;93.60;;;;;;5032164;28;20083;-65
2023/01/03 01:26:09;;;;;;;19.55;12.38;;;8.40;93.60;;;;;;5030537;28;20435;-65
2023/01/03 01:28:34;;;;;;;18.88;13.45;;;8.40;93.50;;;;;;5017746;28;20018;-65
2023/01/03 01:31:02;;;;;;;15.88;11.88;;;8.40;93.50;;;;;;5031649;28;20033;-65
2023/01/03 01:33:29;;;;;;;21.90;13.80;;;8.40;93.40;;;;;;5030530;28;20484;-66
2023/01/03 01:35:55;;;;;;;14.65;11.23;;;8.40;93.50;;;;;;5024348;28;20561;-65
2023/01/03 01:38:20;;;;;;;18.83;12.73;;;8.40;93.50;;;;;;5031186;28;20033;-65
2023/01/03 01:40:46;;;;;;;17.63;11.98;;;8.40;93.50;;;;;;5031767;28;20476;-66
2023/01/03 01:46:15;;;;;;;16.98;12.93;;;8.40;93.40;;;;;;5017507;28;20036;-66
2023/01/03 01:48:41;;;;;;;17.10;11.93;;;8.40;93.40;;;;;;5030095;28;20025;-66
2023/01/03 01:51:08;;;;;;;17.10;12.10;;;8.40;93.40;;;;;;5031001;28;20592;-66
2023/01/03 01:53:35;;;;;;;15.70;12.50;;;8.30;93.50;;;;;;5031037;28;20030;-65
2023/01/03 01:56:20;;;;;;;18.67;12.80;;;8.30;93.40;;;;;;5031345;28;20072;-65
2023/01/03 01:58:50;;;;;;;18.27;12.93;;;8.30;93.40;;;;;;5031349;28;20476;-65
2023/01/03 02:01:18;;;;;;;16.67;12.48;;;8.20;93.40;;;;;;5030213;28;20496;-65
2023/01/03 02:03:46;;;;;;;19.48;14.00;;;8.20;93.40;;;;;;5029851;28;20033;-65
2023/01/03 02:06:15;;;;;;;15.48;12.48;;;8.10;93.40;;;;;;5023124;28;20056;-65
2023/01/03 02:08:41;;;;;;;16.63;12.95;;;8.10;93.50;;;;;;5029716;28;20030;-66
2023/01/03 02:11:32;;;;;;;16.45;11.80;;;8.10;93.40;;;;;;5028942;28;20025;-66
2023/01/03 02:14:21;;;;;;;18.45;13.32;;;8.10;93.50;;;;;;5030885;28;20395;-65
2023/01/03 02:16:55;;;;;;;15.40;10.70;;;8.10;93.40;;;;;;5025696;28;20565;-65
2023/01/03 02:19:56;;;;;;;17.83;12.77;;;8.10;93.40;;;;;;5027355;28;20049;-65
2023/01/03 02:23:02;;;;;;;23.73;14.48;;;8.10;93.40;;;;;;5029894;28;20037;-65
2023/01/03 02:25:34;;;;;;;27.13;14.77;;;8.10;93.40;;;;;;5021063;28;20025;-66
2023/01/03 02:28:40;;;;;;;19.45;14.40;;;8.10;93.40;;;;;;5026857;28;20033;-65
2023/01/03 02:31:13;;;;;;;24.88;14.55;;;8.10;93.40;;;;;;5026608;28;20025;-65
2023/01/03 02:33:51;;;;;;;22.10;13.95;;;8.10;93.40;;;;;;5030469;28;20025;-65
2023/01/03 02:36:54;;;;;;;19.85;14.05;;;8.10;93.40;;;;;;5029720;28;20396;-66
2023/01/03 02:39:43;;;;;;;19.27;14.05;;;8.10;93.40;;;;;;5022278;28;20176;-65
2023/01/03 02:45:26;;;;;;;24.33;16.58;;;8.10;93.30;;;;;;5029771;28;20040;-66
2023/01/03 02:48:10;;;;;;;28.98;21.10;;;8.10;93.40;;;;;;5023787;28;20026;-65
2023/01/03 02:50:44;;;;;;;26.75;17.48;;;8.10;93.30;;;;;;5023407;28;20432;-66
2023/01/03 02:53:14;;;;;;;27.95;18.92;;;8.00;93.50;;;;;;5029899;28;20056;-65
2023/01/03 02:55:43;;;;;;;26.88;18.58;;;8.00;93.50;;;;;;5030304;28;20472;-66
2023/01/03 02:58:14;;;;;;;23.08;16.90;;;8.00;93.60;;;;;;5029611;28;20672;-65
2023/01/03 03:00:47;;;;;;;26.88;17.40;;;8.00;93.60;;;;;;5029125;28;20056;-65
2023/01/03 03:03:16;;;;;;;20.67;15.10;;;7.90;93.60;;;;;;5030100;28;20530;-65
2023/01/03 03:06:03;;;;;;;24.75;16.83;;;7.90;93.60;;;;;;5030112;28;20081;-65
2023/01/03 03:08:28;;;;;;;20.67;15.30;;;7.90;93.60;;;;;;5027329;28;20407;-65
2023/01/03 03:13:59;;;;;;;21.75;16.27;;;8.00;93.70;;;;;;5022971;28;20102;-65
2023/01/03 03:16:48;;;;;;;26.55;18.05;;;8.00;93.70;;;;;;5029712;28;20029;-65
2023/01/03 03:25:33;;;;;;;22.00;15.63;;;8.00;93.70;;;;;;5028132;28;20149;-65
2023/01/03 03:30:51;;;;;;;21.92;14.30;;;8.10;93.70;;;;;;5024285;28;20048;-64
2023/01/03 03:33:19;;;;;;;20.63;14.65;;;8.10;93.70;;;;;;5028684;28;20026;-65
2023/01/03 03:36:04;;;;;;;24.33;16.55;;;8.10;93.70;;;;;;5027185;28;20033;-66
2023/01/03 03:38:37;;;;;;;22.73;15.70;;;8.10;93.70;;;;;;5019064;28;20024;-66
2023/01/03 03:47:35;;;;;;;25.27;18.10;;;8.00;93.70;;;;;;5028740;28;20163;-66
2023/01/03 03:50:09;;;;;;;23.15;16.48;;;8.00;93.80;;;;;;5023939;28;20033;-66
2023/01/03 03:52:36;;;;;;;32.60;20.80;;;8.10;93.70;;;;;;5025843;28;20048;-66
2023/01/03 03:55:42;;;;;;;26.42;18.75;;;8.10;93.60;;;;;;5026063;28;20025;-66
2023/01/03 03:58:22;;;;;;;35.08;25.77;;;8.00;93.60;;;;;;5029047;28;20033;-66
2023/01/03 04:00:50;;;;;;;30.95;24.15;;;8.00;93.60;;;;;;5023681;28;20037;-66
2023/01/03 04:03:17;;;;;;;36.95;27.15;;;7.90;93.60;;;;;;5028032;28;20010;-66
2023/01/03 04:05:52;;;;;;;27.52;20.38;;;7.90;93.70;;;;;;5028266;28;20033;-65
2023/01/03 04:08:18;;;;;;;25.05;18.85;;;7.90;93.90;;;;;;5029222;28;20492;-65
2023/01/03 04:10:44;;;;;;;29.02;21.05;;;7.90;93.80;;;;;;5028796;28;20032;-65
2023/01/03 04:13:09;;;;;;;29.45;21.13;;;7.90;93.80;;;;;;5029647;28;20096;-66
2023/01/03 04:15:35;;;;;;;32.33;23.77;;;7.90;93.70;;;;;;5029401;28;20030;-66
2023/01/03 04:18:01;;;;;;;35.72;25.25;;;7.90;93.70;;;;;;5028950;28;20030;-66
2023/01/03 04:20:27;;;;;;;28.92;19.67;;;7.80;93.70;;;;;;5027808;28;20028;-66
2023/01/03 04:22:52;;;;;;;34.22;25.23;;;7.80;93.80;;;;;;5030365;28;20021;-66
2023/01/03 04:25:18;;;;;;;35.30;25.95;;;7.90;93.70;;;;;;5035300;28;20395;-66
2023/01/03 04:27:44;;;;;;;26.17;18.67;;;7.80;93.70;;;;;;5036303;28;20663;-65
2023/01/03 04:30:10;;;;;;;27.63;19.52;;;7.80;93.70;;;;;;5029859;28;20029;-66
2023/01/03 04:32:36;;;;;;;24.40;19.08;;;7.80;93.60;;;;;;5035518;28;20029;-66
2023/01/03 04:35:01;;;;;;;35.35;25.65;;;7.80;93.60;;;;;;5034352;28;20633;-66
2023/01/03 04:37:27;;;;;;;36.40;24.55;;;7.70;93.50;;;;;;5033814;28;20174;-66
2023/01/03 04:39:53;;;;;;;25.55;17.45;;;7.60;93.40;;;;;;5034923;28;20120;-66
2023/01/03 04:45:03;;;;;;;18.80;15.23;;;7.50;93.50;;;;;;5034948;28;20037;-66
2023/01/03 04:47:29;;;;;;;19.50;14.65;;;7.50;93.50;;;;;;5028521;28;20029;-66
2023/01/03 04:49:54;;;;;;;21.48;16.40;;;7.60;93.50;;;;;;5032437;28;20029;-66
2023/01/03 04:52:20;;;;;;;25.33;18.38;;;7.60;93.50;;;;;;5033748;28;20744;-66
2023/01/03 04:54:45;;;;;;;23.85;17.35;;;7.50;93.40;;;;;;5033715;28;20529;-66
2023/01/03 04:57:11;;;;;;;19.92;15.20;;;7.40;93.40;;;;;;5034084;28;20072;-66
2023/01/03 04:59:36;;;;;;;19.00;14.73;;;7.50;93.50;;;;;;5034332;28;20484;-65
2023/01/03 05:02:03;;;;;;;19.80;14.35;;;7.50;93.50;;;;;;5029692;28;20030;-66
2023/01/03 05:04:29;;;;;;;18.20;14.13;;;7.50;93.50;;;;;;5035135;28;20503;-66
2023/01/03 05:06:55;;;;;;;18.83;14.60;;;7.50;93.40;;;;;;5029859;28;20050;-66
2023/01/03 05:09:22;;;;;;;18.33;14.20;;;7.50;93.40;;;;;;5033834;28;20025;-65
2023/01/03 05:11:47;;;;;;;16.75;13.45;;;7.40;93.30;;;;;;5034293;28;20090;-66
2023/01/03 05:14:13;;;;;;;24.90;17.58;;;7.50;93.30;;;;;;5035006;28;20038;-66
2023/01/03 05:16:38;;;;;;;22.30;15.77;;;7.40;93.20;;;;;;5034487;28;20033;-66
2023/01/03 05:19:04;;;;;;;24.35;18.70;;;7.30;93.20;;;;;;5035106;28;20048;-66
2023/01/03 05:27:00;;;;;;;17.83;14.40;;;7.10;93.00;;;;;;5035492;28;20083;-66
2023/01/03 05:29:27;;;;;;;16.92;12.50;;;7.00;93.10;;;;;;5035092;28;20032;-66
2023/01/03 05:31:53;;;;;;;19.58;14.88;;;7.00;93.20;;;;;;5032519;28;20037;-66
2023/01/03 05:34:19;;;;;;;15.82;11.70;;;7.00;93.10;;;;;;5029584;28;20018;-66
2023/01/03 05:36:44;;;;;;;21.00;15.00;;;7.00;93.20;;;;;;5041390;28;20029;-66
2023/01/03 05:39:10;;;;;;;16.95;12.88;;;6.90;93.10;;;;;;5029210;28;20033;-66
2023/01/03 05:44:20;;;;;;;16.50;12.65;;;6.90;93.10;;;;;;5031910;28;20033;-66
2023/01/03 05:46:46;;;;;;;15.48;11.02;;;6.80;93.10;;;;;;5030473;28;20403;-66
2023/01/03 05:49:12;;;;;;;18.08;13.15;;;6.80;93.20;;;;;;5030679;28;20082;-66
2023/01/03 05:51:37;;;;;;;15.25;12.10;;;6.80;93.20;;;;;;5030467;28;20438;-66
2023/01/03 05:54:04;;;;;;;14.18;10.45;;;6.80;93.20;;;;;;5030313;28;20060;-65
2023/01/03 05:56:30;;;;;;;16.27;12.43;;;6.80;93.20;;;;;;5030358;28;20492;-66
2023/01/03 05:58:57;;;;;;;16.75;13.32;;;6.70;93.10;;;;;;5029892;28;20029;-66
2023/01/03 06:01:25;;;;;;;16.65;11.38;;;6.60;93.10;;;;;;5031222;28;20037;-66
2023/01/03 06:03:51;;;;;;;17.92;11.60;;;6.60;93.20;;;;;;5031714;28;20021;-65
2023/01/03 06:06:17;;;;;;;12.82;9.82;;;6.60;93.20;;;;;;5025383;28;20029;-66
2023/01/03 06:08:43;;;;;;;13.82;10.20;;;6.60;93.30;;;;;;5030719;28;20018;-66
2023/01/03 06:11:11;;;;;;;15.23;10.48;;;6.60;93.30;;;;;;5031397;28;20036;-67
2023/01/03 06:13:37;;;;;;;13.50;10.07;;;6.60;93.30;;;;;;5028158;28;20033;-66
2023/01/03 06:18:53;;;;;;;14.00;10.10;;;6.60;93.20;;;;;;5018707;28;20044;-66
2023/01/03 06:21:19;;;;;;;13.98;8.77;;;6.60;93.20;;;;;;5029678;28;20025;-66
2023/01/03 06:23:46;;;;;;;11.15;9.18;;;6.60;93.20;;;;;;5029919;28;20030;-66
2023/01/03 06:26:13;;;;;;;11.48;9.15;;;6.60;93.20;;;;;;5031224;28;20049;-66
2023/01/03 06:28:38;;;;;;;14.90;10.32;;;6.60;93.20;;;;;;5030557;28;20450;-65
2023/01/03 06:31:04;;;;;;;14.02;10.13;;;6.60;93.20;;;;;;5030186;28;20033;-66
2023/01/03 06:33:30;;;;;;;11.68;8.90;;;6.50;93.30;;;;;;5029915;28;20041;-66
2023/01/03 06:35:56;;;;;;;14.85;9.07;;;6.60;93.40;;;;;;5023247;28;20114;-66
2023/01/03 06:38:21;;;;;;;13.73;9.13;;;6.60;93.40;;;;;;5030406;28;20096;-66
2023/01/03 06:40:48;;;;;;;12.98;9.30;;;6.60;93.30;;;;;;5030697;28;20634;-65
2023/01/03 06:43:13;;;;;;;12.85;9.40;;;6.60;93.20;;;;;;5028137;28;20030;-65
2023/01/03 06:53:56;;;;;;;12.68;8.43;;;6.70;93.00;;;;;;5029716;28;20127;-65
2023/01/03 06:56:22;;;;;;;9.73;7.95;;;6.60;93.30;;;;;;5030612;28;20467;-65
2023/01/03 06:58:47;;;;;;;8.27;5.93;;;6.70;93.00;;;;;;5029558;28;20068;-65
2023/01/03 07:01:14;;;;;;;12.32;8.15;;;6.70;93.00;;;;;;5029021;28;20033;-65
2023/01/03 07:03:39;;;;;;;11.27;7.30;;;6.70;93.00;;;;;;5028640;28;20036;-65
2023/01/03 07:06:05;;;;;;;10.30;7.35;;;6.70;93.10;;;;;;5030202;28;20025;-65
2023/01/03 07:08:30;;;;;;;11.43;8.20;;;6.70;93.10;;;;;;5029734;28;20037;-65
2023/01/03 07:10:56;;;;;;;14.25;7.97;;;6.70;93.10;;;;;;5028877;28;20025;-65
2023/01/03 07:16:06;;;;;;;10.60;7.40;;;6.70;93.10;;;;;;5025130;28;20037;-65
2023/01/03 07:18:32;;;;;;;11.02;6.97;;;6.70;93.00;;;;;;5025078;28;20392;-65
2023/01/03 07:20:58;;;;;;;12.55;8.55;;;6.70;93.00;;;;;;5029531;28;20084;-64
2023/01/03 07:23:24;;;;;;;15.63;10.57;;;6.60;92.90;;;;;;5027210;28;20052;-65
2023/01/03 07:25:53;;;;;;;16.65;10.48;;;6.60;92.90;;;;;;5027862;28;20499;-65
2023/01/03 07:28:19;;;;;;;15.25;9.73;;;6.50;93.00;;;;;;5028747;28;20021;-65
2023/01/03 07:30:45;;;;;;;14.40;9.25;;;6.50;93.00;;;;;;5029781;28;20443;-65
2023/01/03 07:33:13;;;;;;;16.42;10.27;;;6.50;93.00;;;;;;5027266;28;20030;-66
2023/01/03 07:35:39;;;;;;;12.38;9.20;;;6.50;93.00;;;;;;5025324;28;20589;-65
2023/01/03 07:38:06;;;;;;;13.45;9.48;;;6.50;93.00;;;;;;5028223;28;20026;-66
2023/01/03 07:40:31;;;;;;;10.75;8.07;;;6.50;93.00;;;;;;5029567;28;20550;-65
2023/01/03 07:45:42;;;;;;;16.65;9.70;;;6.50;92.90;;;;;;5028539;28;20450;-66
2023/01/03 07:48:08;;;;;;;20.05;10.52;;;6.50;92.90;;;;;;5027721;28;20022;-66
2023/01/03 07:50:35;;;;;;;16.67;9.70;;;6.60;92.90;;;;;;5027106;28;20041;-65
2023/01/03 07:53:00;;;;;;;13.10;8.35;;;6.70;92.90;;;;;;5029410;28;20029;-65
2023/01/03 07:55:27;;;;;;;10.05;6.65;;;6.70;92.90;;;;;;5028169;28;20032;-65
2023/01/03 07:57:53;;;;;;;17.13;10.27;;;6.80;92.80;;;;;;5023091;28;20480;-66
2023/01/03 08:00:19;;;;;;;16.55;9.80;;;6.70;92.70;;;;;;5028202;28;20022;-65
2023/01/03 08:02:45;;;;;;;18.88;10.50;;;6.80;92.70;;;;;;5028715;28;20034;-66
2023/01/03 08:05:10;;;;;;;14.88;9.73;;;6.70;92.70;;;;;;5023017;28;20026;-65
2023/01/03 08:07:36;;;;;;;10.02;7.80;;;6.70;92.80;;;;;;5027893;28;20483;-65
2023/01/03 08:15:29;;;;;;;14.10;10.02;;;6.80;93.20;;;;;;5028156;28;20048;-66
2023/01/03 08:17:55;;;;;;;15.38;10.55;;;6.90;92.90;;;;;;5028671;28;20396;-66
2023/01/03 08:20:20;;;;;;;16.20;10.45;;;6.90;92.90;;;;;;5028702;28;20033;-66
2023/01/03 08:22:46;;;;;;;15.18;8.52;;;6.90;92.90;;;;;;5029420;28;20025;-66
2023/01/03 08:25:11;;;;;;;17.17;9.98;;;6.90;93.00;;;;;;5027304;28;20045;-66
2023/01/03 08:27:37;;;;;;;16.05;9.93;;;6.90;93.00;;;;;;5028508;28;20036;-66
2023/01/03 08:30:03;;;;;;;21.20;11.80;;;6.90;93.10;;;;;;5028980;28;20135;-66
2023/01/03 08:32:31;;;;;;;11.63;8.35;;;6.90;93.10;;;;;;5027111;28;20069;-66
2023/01/03 08:34:57;;;;;;;18.45;10.80;;;6.90;93.10;;;;;;5039389;28;21624;-66
2023/01/03 08:37:23;;;;;;;14.40;10.88;;;6.90;93.00;;;;;;5028606;28;20075;-66
2023/01/03 08:39:55;;;;;;;14.93;9.05;;;6.90;93.10;;;;;;5028731;28;20377;-66
2023/01/03 08:42:22;;;;;;;12.15;7.43;;;6.90;93.10;;;;;;5027153;28;20108;-66
2023/01/03 08:44:52;;;;;;;13.02;8.77;;;7.00;93.20;;;;;;5021622;28;20029;-66
2023/01/03 08:47:19;;;;;;;16.83;9.23;;;7.00;93.20;;;;;;5021186;28;20029;-66
2023/01/03 08:49:45;;;;;;;14.50;9.52;;;7.00;93.20;;;;;;5026439;28;20037;-65
2023/01/03 08:52:11;;;;;;;12.40;9.05;;;7.00;93.30;;;;;;5027098;28;20057;-65
2023/01/03 08:54:38;;;;;;;13.70;8.13;;;7.10;93.30;;;;;;5026808;28;20071;-65
2023/01/03 08:57:03;;;;;;;10.70;7.97;;;7.10;93.30;;;;;;5028858;28;20108;-66
2023/01/03 08:59:29;;;;;;;11.43;8.15;;;7.20;93.20;;;;;;5029339;28;20060;-65
2023/01/03 09:02:01;;;;;;;13.00;8.80;;;7.20;93.10;;;;;;5028543;28;20108;-66
2023/01/03 09:04:26;;;;;;;11.77;8.43;;;7.30;93.10;;;;;;5028275;28;20045;-66
2023/01/03 09:06:52;;;;;;;10.10;8.57;;;7.30;93.10;;;;;;5024737;28;20392;-66
2023/01/03 09:09:17;;;;;;;12.68;10.32;;;7.30;93.10;;;;;;5025319;28;20498;-66
2023/01/03 09:11:43;;;;;;;15.82;11.27;;;7.30;93.00;;;;;;5032670;28;20524;-65
2023/01/03 09:14:08;;;;;;;17.75;12.38;;;7.30;93.00;;;;;;5032285;28;20088;-65
2023/01/03 09:16:34;;;;;;;21.02;11.48;;;7.30;93.10;;;;;;5032594;28;20032;-65
2023/01/03 09:19:01;;;;;;;12.00;9.52;;;7.20;93.20;;;;;;5030850;28;20550;-65
2023/01/03 09:21:28;;;;;;;12.68;8.98;;;7.30;93.30;;;;;;5029699;28;20029;-65
2023/01/03 09:23:54;;;;;;;16.95;11.63;;;7.30;93.40;;;;;;5032336;28;20014;-66
2023/01/03 09:26:20;;;;;;;14.65;9.75;;;7.30;93.50;;;;;;5031912;28;20127;-66
2023/01/03 09:28:46;;;;;;;14.70;9.60;;;7.30;93.60;;;;;;5032426;28;20060;-65
2023/01/03 09:31:11;;;;;;;13.80;9.02;;;7.40;93.70;;;;;;5031559;28;20080;-66
2023/01/03 09:33:37;;;;;;;12.25;8.88;;;7.40;93.80;;;;;;5031546;28;20037;-66
2023/01/03 09:36:03;;;;;;;12.20;8.73;;;7.50;93.80;;;;;;5031701;28;20104;-66
2023/01/03 09:38:28;;;;;;;11.57;8.90;;;7.50;93.80;;;;;;5019225;28;20510;-66
2023/01/03 09:41:07;;;;;;;13.95;8.90;;;7.50;93.90;;;;;;5030412;28;20365;-67
2023/01/03 09:43:41;;;;;;;14.15;10.23;;;7.60;94.00;;;;;;5026165;28;20026;-67
2023/01/03 09:46:16;;;;;;;12.63;9.48;;;7.60;94.00;;;;;;5030601;28;20018;-66
2023/01/03 09:48:42;;;;;;;12.52;8.45;;;7.60;94.10;;;;;;5028301;28;20104;-67
2023/01/03 10:05:39;;;;;;;21.52;14.23;;;7.80;94.50;;;;;;5030324;28;20392;-65
2023/01/03 10:08:24;;;;;;;18.02;12.30;;;7.70;94.50;;;;;;5030146;28;20022;-65
2023/01/03 10:11:16;;;;;;;19.38;11.85;;;7.70;94.70;;;;;;5022883;28;20072;-65
2023/01/03 10:13:57;;;;;;;18.48;11.07;;;7.80;94.70;;;;;;5026524;28;20033;-66
2023/01/03 10:16:42;;;;;;;18.38;11.95;;;7.80;94.70;;;;;;5026028;28;20438;-66
2023/01/03 10:19:22;;;;;;;18.02;11.65;;;7.90;94.80;;;;;;5029345;28;20014;-67
2023/01/03 10:22:02;;;;;;;22.05;14.27;;;7.90;94.80;;;;;;5029524;28;20025;-66
2023/01/03 10:24:30;;;;;;;21.00;13.10;;;7.90;94.80;;;;;;5029456;28;20123;-67
2023/01/03 10:27:18;;;;;;;14.88;10.20;;;8.00;94.90;;;;;;5029963;28;20025;-67
2023/01/03 10:29:45;;;;;;;16.52;11.35;;;8.00;95.00;;;;;;5029853;28;20018;-67
2023/01/03 10:32:32;;;;;;;13.65;8.93;;;8.10;94.90;;;;;;5026893;28;20022;-66
2023/01/03 10:35:15;;;;;;;20.02;13.32;;;8.10;94.90;;;;;;5029221;28;20029;-66
2023/01/03 10:37:41;;;;;;;14.18;10.90;;;8.10;94.80;;;;;;5028234;28;20029;-67
2023/01/03 10:40:07;;;;;;;14.23;9.10;;;8.10;94.80;;;;;;5030067;28;20491;-66
2023/01/03 10:42:35;;;;;;;14.07;10.15;;;8.20;94.90;;;;;;5027157;28;20067;-65
2023/01/03 10:45:21;;;;;;;13.25;9.70;;;8.20;94.80;;;;;;5020746;28;20033;-65
2023/01/03 10:48:04;;;;;;;15.98;10.52;;;8.30;94.90;;;;;;5025635;28;20077;-65
2023/01/03 10:50:36;;;;;;;14.05;9.10;;;8.30;94.90;;;;;;5027125;28;20018;-65
2023/01/03 10:53:07;;;;;;;17.13;9.80;;;8.30;94.90;;;;;;5027091;28;20116;-65
2023/01/03 10:55:34;;;;;;;14.20;8.82;;;8.30;94.90;;;;;;5023433;28;20037;-66
2023/01/03 10:58:31;;;;;;;12.07;8.52;;;8.40;94.90;;;;;;5026408;28;20041;-66
2023/01/03 11:01:26;;;;;;;11.38;8.00;;;8.40;94.90;;;;;;5021231;28;20529;-65
2023/01/03 11:04:13;;;;;;;14.82;10.10;;;8.50;94.80;;;;;;5007656;28;20080;-66
2023/01/03 11:06:59;;;;;;;16.48;10.52;;;8.50;94.80;;;;;;5026154;28;20033;-66
2023/01/03 11:09:32;;;;;;;17.52;11.68;;;8.50;94.80;;;;;;5024850;28;20029;-66
2023/01/03 11:12:37;;;;;;;16.67;10.98;;;8.50;94.80;;;;;;5022785;28;20022;-66
2023/01/03 11:15:34;;;;;;;15.95;9.25;;;8.50;95.00;;;;;;5015520;28;20060;-66
2023/01/03 11:18:05;;;;;;;14.85;10.40;;;8.50;95.10;;;;;;5025289;28;20034;-66
2023/01/03 11:20:40;;;;;;;12.93;8.30;;;8.50;95.10;;;;;;5025939;28;20026;-66
2023/01/03 11:23:20;;;;;;;11.25;7.65;;;8.40;95.20;;;;;;5026905;28;20061;-66
2023/01/03 11:26:37;;;;;;;13.00;7.50;;;8.50;95.20;;;;;;5024953;28;20025;-66
2023/01/03 11:29:44;;;;;;;17.35;10.05;;;8.60;95.20;;;;;;5004088;28;20046;-66
2023/01/03 11:32:15;;;;;;;14.32;8.80;;;8.60;95.10;;;;;;5025519;28;20507;-66
2023/01/03 11:35:21;;;;;;;13.10;8.82;;;8.60;95.10;;;;;;5025928;28;20025;-65
2023/01/03 11:38:11;;;;;;;13.07;7.97;;;8.60;95.10;;;;;;5027089;28;20033;-66
2023/01/03 11:41:10;;;;;;;15.82;10.82;;;8.70;95.10;;;;;;5026244;28;20036;-66
2023/01/03 11:44:06;;;;;;;18.10;9.98;;;8.70;95.10;;;;;;5026150;28;20029;-66
2023/01/03 11:46:56;;;;;;;11.55;7.90;;;8.60;95.10;;;;;;5023245;28;20563;-66
2023/01/03 11:49:39;;;;;;;12.35;7.45;;;8.60;95.20;;;;;;5024085;28;20056;-67
2023/01/03 11:52:40;;;;;;;12.13;8.00;;;8.70;95.20;;;;;;5024495;28;20108;-66
2023/01/03 11:55:16;;;;;;;9.35;6.22;;;8.70;95.20;;;;;;5022994;28;20029;-66
2023/01/03 11:57:51;;;;;;;10.52;7.43;;;8.70;95.20;;;;;;5025100;28;20025;-66
2023/01/03 12:00:19;;;;;;;14.50;8.93;;;8.80;95.20;;;;;;5025806;28;20630;-66
2023/01/03 12:02:59;;;;;;;12.88;8.57;;;8.80;95.20;;;;;;5023755;28;20419;-67
2023/01/03 12:05:39;;;;;;;9.73;6.72;;;8.80;95.20;;;;;;5022361;28;20526;-66
2023/01/03 12:08:10;;;;;;;14.60;8.30;;;8.80;95.20;;;;;;5025040;28;20123;-67
2023/01/03 12:10:55;;;;;;;12.10;8.00;;;8.80;95.10;;;;;;5026301;28;20026;-67
2023/01/03 12:13:29;;;;;;;12.35;8.18;;;8.80;95.20;;;;;;5027747;28;20103;-67
2023/01/03 12:16:07;;;;;;;10.10;6.93;;;8.80;95.10;;;;;;5024573;28;20033;-67
2023/01/03 12:18:52;;;;;;;9.77;6.75;;;8.80;95.10;;;;;;5025648;28;20029;-67
2023/01/03 12:21:30;;;;;;;12.23;7.90;;;8.90;95.10;;;;;;5026294;28;20076;-66
2023/01/03 12:24:25;;;;;;;12.27;7.22;;;8.90;95.10;;;;;;5022198;28;20506;-67
2023/01/03 12:26:55;;;;;;;13.65;8.02;;;8.90;95.10;;;;;;5024646;28;20029;-67
2023/01/03 12:29:29;;;;;;;14.43;8.05;;;9.00;95.00;;;;;;5027485;28;20036;-67
2023/01/03 12:32:22;;;;;;;13.55;8.20;;;8.90;95.00;;;;;;5028008;28;20034;-66
2023/01/03 12:34:59;;;;;;;;;;;8.90;94.90;;;;;;5025800;28;20022;-66
2023/01/03 12:37:29;;;;;;;8.63;6.00;;;9.00;94.90;;;;;;5025731;28;19909;-66
2023/01/03 12:40:03;;;;;;;9.25;5.82;;;9.00;94.90;;;;;;5024849;28;20049;-66
2023/01/03 12:42:54;;;;;;;11.73;6.53;;;9.00;94.90;;;;;;5022140;28;20037;-67
2023/01/03 12:45:47;;;;;;;10.73;7.18;;;9.00;94.70;;;;;;5028147;28;20037;-66
2023/01/03 12:48:27;;;;;;;11.00;6.47;;;9.00;94.50;;;;;;5031084;28;20051;-66
2023/01/03 12:50:53;;;;;;;13.43;7.53;;;9.00;94.40;;;;;;5029728;28;20431;-66
2023/01/03 12:53:29;;;;;;;10.65;6.93;;;9.00;94.40;;;;;;5030157;28;20025;-66
2023/01/03 12:56:08;;;;;;;8.32;6.05;;;9.00;94.30;;;;;;5028918;28;20042;-66
2023/01/03 12:59:03;;;;;;;12.98;8.77;;;9.00;94.20;;;;;;5030465;28;20018;-66
2023/01/03 13:01:44;;;;;;;12.85;8.27;;;9.00;94.10;;;;;;5031039;28;20080;-66
2023/01/03 13:04:21;;;;;;;14.00;8.25;;;9.00;94.10;;;;;;5029647;28;20464;-66
2023/01/03 13:07:10;;;;;;;12.13;8.00;;;9.00;94.00;;;;;;5028151;28;20032;-66
2023/01/03 13:09:39;;;;;;;11.00;7.47;;;9.10;94.10;;;;;;5025138;28;20033;-66
2023/01/03 13:12:15;;;;;;;11.05;7.57;;;9.10;94.00;;;;;;5029344;28;20511;-66
2023/01/03 13:15:12;;;;;;;8.55;6.13;;;9.10;94.00;;;;;;5026639;28;20025;-66
2023/01/03 13:17:48;;;;;;;12.82;7.32;;;9.20;93.90;;;;;;5028299;28;20492;-66
2023/01/03 13:20:13;;;;;;;9.13;6.70;;;9.20;93.80;;;;;;5028533;28;20395;-66
2023/01/03 13:22:55;;;;;;;10.20;6.25;;;9.30;93.80;;;;;;5027880;28;20026;-66
2023/01/03 13:25:42;;;;;;;9.97;6.63;;;9.40;93.70;;;;;;5028836;28;20636;-66
2023/01/03 13:28:17;;;;;;;10.18;6.68;;;9.40;93.60;;;;;;5028796;28;20311;-66
2023/01/03 13:30:43;;;;;;;12.05;7.70;;;9.40;93.50;;;;;;5031399;28;20026;-66
2023/01/03 13:33:12;;;;;;;11.48;7.00;;;9.40;93.40;;;;;;5025634;28;20026;-66
2023/01/03 13:35:44;;;;;;;11.63;7.00;;;9.40;93.30;;;;;;5030382;28;20041;-66
2023/01/03 13:38:30;;;;;;;10.52;7.28;;;9.40;93.30;;;;;;5029787;28;20030;-66
2023/01/03 13:40:58;;;;;;;10.55;7.60;;;9.40;93.20;;;;;;5029876;28;20025;-66
2023/01/03 13:43:33;;;;;;;9.35;5.80;;;9.40;93.10;;;;;;5028556;28;20053;-66
2023/01/03 13:46:21;;;;;;;7.90;5.65;;;9.30;93.00;;;;;;5024901;28;20025;-66
2023/01/03 13:48:54;;;;;;;8.50;5.63;;;9.40;93.00;;;;;;5029753;28;20087;-66
2023/01/03 13:51:20;;;;;;;9.52;6.07;;;9.30;92.70;;;;;;5027262;28;20053;-66
2023/01/03 13:53:59;;;;;;;7.18;5.40;;;9.30;92.50;;;;;;5027681;28;20049;-67
2023/01/03 13:56:30;;;;;;;10.73;5.75;;;9.30;92.30;;;;;;5023619;28;20033;-66
2023/01/03 13:59:17;;;;;;;7.43;4.75;;;9.30;92.20;;;;;;5028785;28;20022;-66
2023/01/03 14:02:15;;;;;;;8.38;4.75;;;9.40;92.10;;;;;;5024931;28;20484;-66
2023/01/03 14:04:50;;;;;;;6.20;4.80;;;9.40;92.10;;;;;;5025557;28;20021;-66
2023/01/03 14:07:24;;;;;;;6.78;4.95;;;9.40;91.70;;;;;;5026453;28;20061;-66
2023/01/03 14:10:05;;;;;;;7.72;4.82;;;9.40;91.70;;;;;;5028765;28;20487;-66
2023/01/03 14:13:11;;;;;;;10.02;5.80;;;9.40;91.60;;;;;;5027583;28;20025;-66
2023/01/03 14:15:37;;;;;;;9.02;5.45;;;9.40;91.40;;;;;;5026245;28;20068;-66
2023/01/03 14:18:21;;;;;;;7.95;4.28;;;9.40;91.30;;;;;;5028004;28;20080;-66
2023/01/03 14:20:51;;;;;;;9.57;6.00;;;9.40;91.30;;;;;;5025465;28;20091;-66
2023/01/03 14:23:19;;;;;;;11.05;9.13;;;9.40;91.20;;;;;;5027712;28;20018;-66
2023/01/03 14:25:45;;;;;;;13.40;9.77;;;9.50;91.10;;;;;;5027929;28;20484;-66